Aglasan, Turkey

5:55 AM +03 on December 10, 2016 (GMT +0300)
MAYCEV | | Change Station

Elev 768 ft 40.22 °N, 29.50 °E | Updated 4 minutes ago

Clear
Clear
25.4 °F
Feels Like 25 °F
N
3.0
Wind Variable Wind from NE
Gusts 5.0 mph

Today
High -- | Low -- °F
--% Chance of Precip.
Yesterday
High -- | Low -- °F
Precip. -- in
Pressure 30.24 in
Visibility 2.8 miles
Clouds
Windchill 25 °F
Dew Point 23 °F
Humidity 92%
Rainfall 0.00 in
Snow Depth Not available.
8:14 AM 5:36 PM
Waxing Gibbous, 79% visible
METAR LTBR 100150Z 31004KT 4500 BR NSC M04/M05 Q1024 NOSIG RMK RWY07 32003KT
Pressure 30.24 in
Visibility 2.8 miles
Clouds
Windchill 25 °F
Dew Point 23 °F
Humidity 92%
Rainfall 0.00 in
Snow Depth Not available.
8:14 AM 5:36 PM
Waxing Gibbous, 79% visible
METAR LTBR 100150Z 31004KT 4500 BR NSC M04/M05 Q1024 NOSIG RMK RWY07 32003KT

10-Day Weather Forecast

×

Almanac

Astronomy

Dec. 10, 2016 Rise Set
Actual Time
Civil Twilight
Nautical Twilight
Astronomical Twilight
Moon
Length of Visible Light
Length of Day
Tomorrow will be .
, % of the Moon is Illuminated

Today's Extremes

Country Highs Country Lows

Community

WunderPhotos

Upload Photos

1,956,532 photos uploaded!

WunderBlog® & News

Nearby

Air Quality

  Air Quality AQ Index Pollutant
Not available.

Snow Depth

Station Depth Elevation

Earthquake Activity

City Distance Mag. Time & Date
Minimum magnitude displayed is 2.5.

Coastal Water Temperatures

Place Temperature

Stations

Nearby Weather Stations

Station Location Temp. Windchill Dew Point Humidity Wind Precip. Elev Updated Type